sensor_id;sensor_type;location;lat;lon;timestamp;temperature;humidity
3548;DHT22;1788;49.400;11.092;2023-07-20T00:01:52;21.00;61.00
3548;DHT22;1788;49.400;11.092;2023-07-20T00:04:19;21.00;61.20
3548;DHT22;1788;49.400;11.092;2023-07-20T00:06:46;20.90;61.40
3548;DHT22;1788;49.400;11.092;2023-07-20T00:09:12;20.80;61.50
3548;DHT22;1788;49.400;11.092;2023-07-20T00:11:39;20.80;61.70
3548;DHT22;1788;49.400;11.092;2023-07-20T00:14:06;20.70;61.70
3548;DHT22;1788;49.400;11.092;2023-07-20T00:16:32;20.70;61.90
3548;DHT22;1788;49.400;11.092;2023-07-20T00:18:59;20.60;62.10
3548;DHT22;1788;49.400;11.092;2023-07-20T00:21:25;20.60;62.30
3548;DHT22;1788;49.400;11.092;2023-07-20T00:23:52;20.60;62.40
3548;DHT22;1788;49.400;11.092;2023-07-20T00:26:18;20.70;62.50
3548;DHT22;1788;49.400;11.092;2023-07-20T00:28:45;20.70;62.50
3548;DHT22;1788;49.400;11.092;2023-07-20T00:31:12;20.70;62.40
3548;DHT22;1788;49.400;11.092;2023-07-20T00:33:38;20.80;62.50
3548;DHT22;1788;49.400;11.092;2023-07-20T00:36:05;20.90;62.50
3548;DHT22;1788;49.400;11.092;2023-07-20T00:38:31;20.90;62.40
3548;DHT22;1788;49.400;11.092;2023-07-20T00:40:58;20.90;62.30
3548;DHT22;1788;49.400;11.092;2023-07-20T00:43:25;20.90;62.20
3548;DHT22;1788;49.400;11.092;2023-07-20T00:45:51;21.00;62.30
3548;DHT22;1788;49.400;11.092;2023-07-20T00:48:18;21.00;62.30
3548;DHT22;1788;49.400;11.092;2023-07-20T00:50:45;20.90;62.10
3548;DHT22;1788;49.400;11.092;2023-07-20T00:53:11;21.00;62.20
3548;DHT22;1788;49.400;11.092;2023-07-20T00:55:38;21.00;62.20
3548;DHT22;1788;49.400;11.092;2023-07-20T00:58:04;21.00;62.20
3548;DHT22;1788;49.400;11.092;2023-07-20T01:00:31;21.00;62.20
3548;DHT22;1788;49.400;11.092;2023-07-20T01:02:58;20.90;62.10
3548;DHT22;1788;49.400;11.092;2023-07-20T01:05:27;20.90;62.10
3548;DHT22;1788;49.400;11.092;2023-07-20T01:15:11;20.90;62.20
3548;DHT22;1788;49.400;11.092;2023-07-20T01:17:37;20.90;62.30
3548;DHT22;1788;49.400;11.092;2023-07-20T01:20:04;20.90;62.30
3548;DHT22;1788;49.400;11.092;2023-07-20T01:32:17;20.60;62.40
3548;DHT22;1788;49.400;11.092;2023-07-20T01:34:44;20.60;62.60
3548;DHT22;1788;49.400;11.092;2023-07-20T01:37:11;20.60;62.60
3548;DHT22;1788;49.400;11.092;2023-07-20T01:39:38;20.60;62.70
3548;DHT22;1788;49.400;11.092;2023-07-20T01:42:05;20.60;62.60
3548;DHT22;1788;49.400;11.092;2023-07-20T01:44:32;20.60;62.70
3548;DHT22;1788;49.400;11.092;2023-07-20T01:46:59;20.60;62.70
3548;DHT22;1788;49.400;11.092;2023-07-20T01:49:26;20.60;62.80
3548;DHT22;1788;49.400;11.092;2023-07-20T01:51:52;20.50;62.80
3548;DHT22;1788;49.400;11.092;2023-07-20T01:54:19;20.50;62.90
3548;DHT22;1788;49.400;11.092;2023-07-20T01:56:46;20.40;63.20
3548;DHT22;1788;49.400;11.092;2023-07-20T01:59:13;20.40;63.20
3548;DHT22;1788;49.400;11.092;2023-07-20T02:01:39;20.30;63.20
3548;DHT22;1788;49.400;11.092;2023-07-20T02:04:06;20.30;63.30
3548;DHT22;1788;49.400;11.092;2023-07-20T02:06:33;20.40;63.50
3548;DHT22;1788;49.400;11.092;2023-07-20T02:08:59;20.40;63.60
3548;DHT22;1788;49.400;11.092;2023-07-20T02:11:26;20.40;63.60
3548;DHT22;1788;49.400;11.092;2023-07-20T02:13:52;20.40;63.60
3548;DHT22;1788;49.400;11.092;2023-07-20T02:16:19;20.50;63.70
3548;DHT22;1788;49.400;11.092;2023-07-20T02:18:46;20.50;63.70
3548;DHT22;1788;49.400;11.092;2023-07-20T02:21:13;20.50;63.70
3548;DHT22;1788;49.400;11.092;2023-07-20T02:23:41;20.50;64.50
3548;DHT22;1788;49.400;11.092;2023-07-20T02:26:07;20.50;63.70
3548;DHT22;1788;49.400;11.092;2023-07-20T02:28:34;20.60;63.70
3548;DHT22;1788;49.400;11.092;2023-07-20T02:31:01;20.50;63.60
3548;DHT22;1788;49.400;11.092;2023-07-20T02:33:28;20.50;63.70
3548;DHT22;1788;49.400;11.092;2023-07-20T02:35:54;20.60;63.80
3548;DHT22;1788;49.400;11.092;2023-07-20T02:38:21;20.50;63.80
3548;DHT22;1788;49.400;11.092;2023-07-20T02:40:47;20.50;63.90
3548;DHT22;1788;49.400;11.092;2023-07-20T02:43:14;20.40;63.90
3548;DHT22;1788;49.400;11.092;2023-07-20T02:45:41;20.40;64.20
3548;DHT22;1788;49.400;11.092;2023-07-20T02:48:07;20.40;64.40
3548;DHT22;1788;49.400;11.092;2023-07-20T02:50:35;20.40;65.40
3548;DHT22;1788;49.400;11.092;2023-07-20T02:53:02;20.40;64.60
3548;DHT22;1788;49.400;11.092;2023-07-20T02:55:28;20.40;64.60
3548;DHT22;1788;49.400;11.092;2023-07-20T02:57:54;20.50;64.70
3548;DHT22;1788;49.400;11.092;2023-07-20T03:00:21;20.50;64.70
3548;DHT22;1788;49.400;11.092;2023-07-20T03:02:48;20.50;64.90
3548;DHT22;1788;49.400;11.092;2023-07-20T03:05:15;20.40;64.80
3548;DHT22;1788;49.400;11.092;2023-07-20T03:07:42;20.40;65.00
3548;DHT22;1788;49.400;11.092;2023-07-20T03:10:09;20.40;65.00
3548;DHT22;1788;49.400;11.092;2023-07-20T03:12:36;20.40;65.00
3548;DHT22;1788;49.400;11.092;2023-07-20T03:15:03;20.40;65.10
3548;DHT22;1788;49.400;11.092;2023-07-20T03:17:29;20.40;65.20
3548;DHT22;1788;49.400;11.092;2023-07-20T03:19:56;20.40;65.30
3548;DHT22;1788;49.400;11.092;2023-07-20T03:22:22;20.30;65.30
3548;DHT22;1788;49.400;11.092;2023-07-20T03:24:49;20.30;65.50
3548;DHT22;1788;49.400;11.092;2023-07-20T03:27:16;20.20;65.50
3548;DHT22;1788;49.400;11.092;2023-07-20T03:29:42;20.20;65.70
3548;DHT22;1788;49.400;11.092;2023-07-20T03:32:09;20.10;65.80
3548;DHT22;1788;49.400;11.092;2023-07-20T03:34:35;20.10;65.90
3548;DHT22;1788;49.400;11.092;2023-07-20T03:37:03;20.10;67.00
3548;DHT22;1788;49.400;11.092;2023-07-20T03:39:30;20.10;66.00
3548;DHT22;1788;49.400;11.092;2023-07-20T03:41:57;20.10;66.00
3548;DHT22;1788;49.400;11.092;2023-07-20T03:44:23;20.00;65.90
3548;DHT22;1788;49.400;11.092;2023-07-20T03:46:49;20.00;66.00
3548;DHT22;1788;49.400;11.092;2023-07-20T03:49:16;20.00;66.10
3548;DHT22;1788;49.400;11.092;2023-07-20T03:51:42;19.90;66.10
3548;DHT22;1788;49.400;11.092;2023-07-20T03:54:09;19.90;66.10
3548;DHT22;1788;49.400;11.092;2023-07-20T03:56:36;19.90;66.20
3548;DHT22;1788;49.400;11.092;2023-07-20T03:59:02;19.90;66.30
3548;DHT22;1788;49.400;11.092;2023-07-20T04:01:29;19.90;66.40
3548;DHT22;1788;49.400;11.092;2023-07-20T04:03:55;19.80;66.40
3548;DHT22;1788;49.400;11.092;2023-07-20T04:06:22;19.80;66.50
3548;DHT22;1788;49.400;11.092;2023-07-20T04:08:49;19.80;66.60
3548;DHT22;1788;49.400;11.092;2023-07-20T04:11:15;19.80;66.70
3548;DHT22;1788;49.400;11.092;2023-07-20T04:13:42;19.80;66.80
3548;DHT22;1788;49.400;11.092;2023-07-20T04:16:09;19.80;66.90
3548;DHT22;1788;49.400;11.092;2023-07-20T04:18:36;19.80;66.90
3548;DHT22;1788;49.400;11.092;2023-07-20T04:21:03;19.80;67.70
3548;DHT22;1788;49.400;11.092;2023-07-20T04:23:30;19.70;67.00
3548;DHT22;1788;49.400;11.092;2023-07-20T04:25:57;19.80;67.10
3548;DHT22;1788;49.400;11.092;2023-07-20T04:28:24;19.80;67.10
3548;DHT22;1788;49.400;11.092;2023-07-20T04:30:51;19.80;67.10
3548;DHT22;1788;49.400;11.092;2023-07-20T04:33:17;19.80;67.10
3548;DHT22;1788;49.400;11.092;2023-07-20T04:35:44;19.90;67.20
3548;DHT22;1788;49.400;11.092;2023-07-20T04:38:11;19.90;67.20
3548;DHT22;1788;49.400;11.092;2023-07-20T04:40:38;19.90;67.20
3548;DHT22;1788;49.400;11.092;2023-07-20T04:43:04;20.00;67.20
3548;DHT22;1788;49.400;11.092;2023-07-20T04:45:31;20.00;67.10
3548;DHT22;1788;49.400;11.092;2023-07-20T04:47:58;20.00;67.20
3548;DHT22;1788;49.400;11.092;2023-07-20T04:50:24;20.10;67.20
3548;DHT22;1788;49.400;11.092;2023-07-20T04:52:51;20.10;67.10
3548;DHT22;1788;49.400;11.092;2023-07-20T04:55:17;20.10;67.00
3548;DHT22;1788;49.400;11.092;2023-07-20T04:57:44;20.10;66.90
3548;DHT22;1788;49.400;11.092;2023-07-20T05:00:12;20.10;66.90
3548;DHT22;1788;49.400;11.092;2023-07-20T05:02:38;20.10;66.90
3548;DHT22;1788;49.400;11.092;2023-07-20T05:05:05;20.10;67.10
3548;DHT22;1788;49.400;11.092;2023-07-20T05:07:32;20.00;66.90
3548;DHT22;1788;49.400;11.092;2023-07-20T05:09:59;20.00;66.90
3548;DHT22;1788;49.400;11.092;2023-07-20T05:12:25;20.00;67.00
3548;DHT22;1788;49.400;11.092;2023-07-20T05:14:52;20.00;66.90
3548;DHT22;1788;49.400;11.092;2023-07-20T05:17:19;20.00;67.00
3548;DHT22;1788;49.400;11.092;2023-07-20T05:19:47;19.90;66.90
3548;DHT22;1788;49.400;11.092;2023-07-20T05:22:13;20.00;66.90
3548;DHT22;1788;49.400;11.092;2023-07-20T05:24:40;20.00;66.90
3548;DHT22;1788;49.400;11.092;2023-07-20T05:27:06;20.10;66.90
3548;DHT22;1788;49.400;11.092;2023-07-20T05:29:33;20.10;66.60
3548;DHT22;1788;49.400;11.092;2023-07-20T05:32:00;20.00;66.40
3548;DHT22;1788;49.400;11.092;2023-07-20T05:34:27;19.90;66.20
3548;DHT22;1788;49.400;11.092;2023-07-20T05:39:21;20.00;66.40
3548;DHT22;1788;49.400;11.092;2023-07-20T05:41:48;20.00;66.30
3548;DHT22;1788;49.400;11.092;2023-07-20T05:44:15;20.00;66.10
3548;DHT22;1788;49.400;11.092;2023-07-20T05:46:42;20.10;66.10
3548;DHT22;1788;49.400;11.092;2023-07-20T05:49:09;20.10;65.80
3548;DHT22;1788;49.400;11.092;2023-07-20T05:51:36;20.10;65.80
3548;DHT22;1788;49.400;11.092;2023-07-20T05:54:02;20.10;65.60
3548;DHT22;1788;49.400;11.092;2023-07-20T05:56:29;20.20;65.50
3548;DHT22;1788;49.400;11.092;2023-07-20T05:58:55;20.10;65.10
3548;DHT22;1788;49.400;11.092;2023-07-20T06:01:23;20.10;64.80
3548;DHT22;1788;49.400;11.092;2023-07-20T06:03:49;20.10;64.80
3548;DHT22;1788;49.400;11.092;2023-07-20T06:06:17;20.00;64.60
3548;DHT22;1788;49.400;11.092;2023-07-20T06:08:43;20.00;64.60
3548;DHT22;1788;49.400;11.092;2023-07-20T06:11:10;20.00;64.60
3548;DHT22;1788;49.400;11.092;2023-07-20T06:13:37;20.00;64.60
3548;DHT22;1788;49.400;11.092;2023-07-20T06:16:03;20.00;64.50
3548;DHT22;1788;49.400;11.092;2023-07-20T06:18:30;20.00;64.40
3548;DHT22;1788;49.400;11.092;2023-07-20T06:20:56;20.00;64.30
3548;DHT22;1788;49.400;11.092;2023-07-20T06:23:23;20.00;64.10
3548;DHT22;1788;49.400;11.092;2023-07-20T06:25:50;20.00;64.00
3548;DHT22;1788;49.400;11.092;2023-07-20T06:28:17;20.10;64.00
3548;DHT22;1788;49.400;11.092;2023-07-20T06:30:44;20.10;63.80
3548;DHT22;1788;49.400;11.092;2023-07-20T06:33:11;20.20;63.60
3548;DHT22;1788;49.400;11.092;2023-07-20T06:35:40;20.20;63.50
3548;DHT22;1788;49.400;11.092;2023-07-20T06:38:04;20.30;63.60
3548;DHT22;1788;49.400;11.092;2023-07-20T06:40:31;20.40;63.40
3548;DHT22;1788;49.400;11.092;2023-07-20T06:42:58;20.60;63.00
3548;DHT22;1788;49.400;11.092;2023-07-20T06:45:25;20.80;62.10
3548;DHT22;1788;49.400;11.092;2023-07-20T06:47:52;20.80;62.00
3548;DHT22;1788;49.400;11.092;2023-07-20T06:50:19;21.10;62.40
3548;DHT22;1788;49.400;11.092;2023-07-20T06:52:45;21.10;61.60
3548;DHT22;1788;49.400;11.092;2023-07-20T06:55:13;21.40;61.10
3548;DHT22;1788;49.400;11.092;2023-07-20T06:57:41;21.30;60.70
3548;DHT22;1788;49.400;11.092;2023-07-20T07:00:08;21.50;60.30
3548;DHT22;1788;49.400;11.092;2023-07-20T07:02:34;21.50;60.00
3548;DHT22;1788;49.400;11.092;2023-07-20T07:05:02;21.70;59.60
3548;DHT22;1788;49.400;11.092;2023-07-20T07:07:28;21.70;59.60
3548;DHT22;1788;49.400;11.092;2023-07-20T07:09:55;21.90;59.30
3548;DHT22;1788;49.400;11.092;2023-07-20T07:12:21;22.10;59.00
3548;DHT22;1788;49.400;11.092;2023-07-20T07:14:48;22.20;58.60
3548;DHT22;1788;49.400;11.092;2023-07-20T07:17:15;22.40;58.40
3548;DHT22;1788;49.400;11.092;2023-07-20T07:19:41;22.50;58.10
3548;DHT22;1788;49.400;11.092;2023-07-20T07:22:08;22.70;57.90
3548;DHT22;1788;49.400;11.092;2023-07-20T07:24:34;22.70;57.30
3548;DHT22;1788;49.400;11.092;2023-07-20T07:27:02;22.80;56.90
3548;DHT22;1788;49.400;11.092;2023-07-20T07:29:28;22.70;56.80
3548;DHT22;1788;49.400;11.092;2023-07-20T07:31:56;22.60;56.10
3548;DHT22;1788;49.400;11.092;2023-07-20T07:34:22;22.60;56.40
3548;DHT22;1788;49.400;11.092;2023-07-20T07:36:50;22.50;56.30
3548;DHT22;1788;49.400;11.092;2023-07-20T07:39:17;22.40;56.20
3548;DHT22;1788;49.400;11.092;2023-07-20T07:41:44;22.30;56.10
3548;DHT22;1788;49.400;11.092;2023-07-20T07:44:10;22.40;56.20
3548;DHT22;1788;49.400;11.092;2023-07-20T07:46:37;22.60;56.10
3548;DHT22;1788;49.400;11.092;2023-07-20T07:49:04;22.70;55.80
3548;DHT22;1788;49.400;11.092;2023-07-20T07:51:31;22.80;55.10
3548;DHT22;1788;49.400;11.092;2023-07-20T07:53:58;22.80;55.10
3548;DHT22;1788;49.400;11.092;2023-07-20T07:56:25;22.80;54.60
3548;DHT22;1788;49.400;11.092;2023-07-20T07:58:52;22.70;54.50
3548;DHT22;1788;49.400;11.092;2023-07-20T08:01:18;22.70;54.30
3548;DHT22;1788;49.400;11.092;2023-07-20T08:03:45;22.70;54.20
3548;DHT22;1788;49.400;11.092;2023-07-20T08:06:11;22.70;54.00
3548;DHT22;1788;49.400;11.092;2023-07-20T08:08:38;22.70;53.80
3548;DHT22;1788;49.400;11.092;2023-07-20T08:11:05;22.70;53.50
3548;DHT22;1788;49.400;11.092;2023-07-20T08:13:31;22.70;53.20
3548;DHT22;1788;49.400;11.092;2023-07-20T08:15:58;22.80;53.00
3548;DHT22;1788;49.400;11.092;2023-07-20T08:18:25;23.00;52.40
3548;DHT22;1788;49.400;11.092;2023-07-20T08:20:52;23.00;52.40
3548;DHT22;1788;49.400;11.092;2023-07-20T08:23:19;23.20;52.10
3548;DHT22;1788;49.400;11.092;2023-07-20T08:25:45;23.20;51.80
3548;DHT22;1788;49.400;11.092;2023-07-20T08:28:14;23.30;51.60
3548;DHT22;1788;49.400;11.092;2023-07-20T08:30:39;23.50;51.60
3548;DHT22;1788;49.400;11.092;2023-07-20T08:33:05;23.70;51.40
3548;DHT22;1788;49.400;11.092;2023-07-20T08:35:32;24.00;51.20
3548;DHT22;1788;49.400;11.092;2023-07-20T08:37:58;24.20;50.80
3548;DHT22;1788;49.400;11.092;2023-07-20T08:40:25;24.40;50.40
3548;DHT22;1788;49.400;11.092;2023-07-20T08:42:52;24.40;50.10
3548;DHT22;1788;49.400;11.092;2023-07-20T08:45:18;24.40;49.80
3548;DHT22;1788;49.400;11.092;2023-07-20T08:47:46;24.50;49.70
3548;DHT22;1788;49.400;11.092;2023-07-20T08:50:12;24.50;49.60
3548;DHT22;1788;49.400;11.092;2023-07-20T08:52:39;24.60;49.40
3548;DHT22;1788;49.400;11.092;2023-07-20T08:55:06;24.70;49.10
3548;DHT22;1788;49.400;11.092;2023-07-20T08:57:32;24.60;48.80
3548;DHT22;1788;49.400;11.092;2023-07-20T09:02:26;24.40;48.60
3548;DHT22;1788;49.400;11.092;2023-07-20T09:04:53;24.50;48.10
3548;DHT22;1788;49.400;11.092;2023-07-20T09:07:20;24.40;48.00
3548;DHT22;1788;49.400;11.092;2023-07-20T09:09:47;24.50;47.80
3548;DHT22;1788;49.400;11.092;2023-07-20T09:12:14;24.50;47.30
3548;DHT22;1788;49.400;11.092;2023-07-20T09:14:42;24.50;47.10
3548;DHT22;1788;49.400;11.092;2023-07-20T09:17:07;24.50;46.90
3548;DHT22;1788;49.400;11.092;2023-07-20T09:19:34;24.50;46.90
3548;DHT22;1788;49.400;11.092;2023-07-20T09:22:01;24.50;46.60
3548;DHT22;1788;49.400;11.092;2023-07-20T09:24:28;24.50;46.60
3548;DHT22;1788;49.400;11.092;2023-07-20T09:26:55;24.40;46.40
3548;DHT22;1788;49.400;11.092;2023-07-20T09:29:21;24.40;46.30
3548;DHT22;1788;49.400;11.092;2023-07-20T09:34:14;24.30;46.00
3548;DHT22;1788;49.400;11.092;2023-07-20T09:36:41;24.30;46.00
3548;DHT22;1788;49.400;11.092;2023-07-20T09:39:08;24.30;45.80
3548;DHT22;1788;49.400;11.092;2023-07-20T09:44:02;24.50;45.00
3548;DHT22;1788;49.400;11.092;2023-07-20T09:46:40;24.50;44.90
3548;DHT22;1788;49.400;11.092;2023-07-20T09:48:56;24.30;44.60
3548;DHT22;1788;49.400;11.092;2023-07-20T09:51:22;24.30;44.60
3548;DHT22;1788;49.400;11.092;2023-07-20T09:53:49;24.30;44.60
3548;DHT22;1788;49.400;11.092;2023-07-20T09:56:16;24.40;44.50
3548;DHT22;1788;49.400;11.092;2023-07-20T09:58:42;24.50;44.30
3548;DHT22;1788;49.400;11.092;2023-07-20T10:01:09;24.90;44.20
3548;DHT22;1788;49.400;11.092;2023-07-20T10:03:37;24.90;44.20
3548;DHT22;1788;49.400;11.092;2023-07-20T10:06:05;25.10;43.90
3548;DHT22;1788;49.400;11.092;2023-07-20T10:08:30;25.20;43.70
3548;DHT22;1788;49.400;11.092;2023-07-20T10:10:59;25.20;43.50
3548;DHT22;1788;49.400;11.092;2023-07-20T10:15:53;24.70;43.10
3548;DHT22;1788;49.400;11.092;2023-07-20T10:18:21;24.70;43.10
3548;DHT22;1788;49.400;11.092;2023-07-20T10:20:45;24.80;43.70
3548;DHT22;1788;49.400;11.092;2023-07-20T10:23:12;24.80;43.20
3548;DHT22;1788;49.400;11.092;2023-07-20T10:25:40;25.00;43.10
3548;DHT22;1788;49.400;11.092;2023-07-20T10:28:07;25.30;42.80
3548;DHT22;1788;49.400;11.092;2023-07-20T10:30:34;25.60;42.30
3548;DHT22;1788;49.400;11.092;2023-07-20T10:33:01;25.80;41.90
3548;DHT22;1788;49.400;11.092;2023-07-20T10:35:27;26.10;41.70
3548;DHT22;1788;49.400;11.092;2023-07-20T10:37:55;26.10;41.30
3548;DHT22;1788;49.400;11.092;2023-07-20T10:42:48;25.80;40.90
3548;DHT22;1788;49.400;11.092;2023-07-20T10:45:15;25.80;40.90
3548;DHT22;1788;49.400;11.092;2023-07-20T10:50:10;25.70;41.20
3548;DHT22;1788;49.400;11.092;2023-07-20T10:52:37;25.70;41.10
3548;DHT22;1788;49.400;11.092;2023-07-20T10:57:31;25.80;40.60
3548;DHT22;1788;49.400;11.092;2023-07-20T11:02:25;25.90;40.50
3548;DHT22;1788;49.400;11.092;2023-07-20T11:04:51;26.20;40.30
3548;DHT22;1788;49.400;11.092;2023-07-20T11:07:35;26.40;39.70
3548;DHT22;1788;49.400;11.092;2023-07-20T11:09:45;26.60;38.90
3548;DHT22;1788;49.400;11.092;2023-07-20T11:12:12;26.60;38.10
3548;DHT22;1788;49.400;11.092;2023-07-20T11:19:31;26.40;37.90
3548;DHT22;1788;49.400;11.092;2023-07-20T11:21:58;26.40;37.90
3548;DHT22;1788;49.400;11.092;2023-07-20T11:24:25;26.50;37.80
3548;DHT22;1788;49.400;11.092;2023-07-20T11:26:52;26.40;37.80
3548;DHT22;1788;49.400;11.092;2023-07-20T11:29:19;26.40;37.60
3548;DHT22;1788;49.400;11.092;2023-07-20T11:31:46;26.40;37.60
3548;DHT22;1788;49.400;11.092;2023-07-20T11:34:13;26.50;37.70
3548;DHT22;1788;49.400;11.092;2023-07-20T11:36:39;26.50;37.50
3548;DHT22;1788;49.400;11.092;2023-07-20T11:39:06;26.50;37.00
3548;DHT22;1788;49.400;11.092;2023-07-20T11:41:32;26.70;37.00
3548;DHT22;1788;49.400;11.092;2023-07-20T11:43:59;26.80;36.60
3548;DHT22;1788;49.400;11.092;2023-07-20T11:46:26;26.90;36.20
3548;DHT22;1788;49.400;11.092;2023-07-20T11:51:19;27.10;36.10
3548;DHT22;1788;49.400;11.092;2023-07-20T11:53:47;27.30;35.90
3548;DHT22;1788;49.400;11.092;2023-07-20T11:56:14;27.50;34.60
3548;DHT22;1788;49.400;11.092;2023-07-20T11:58:43;27.50;34.50
3548;DHT22;1788;49.400;11.092;2023-07-20T12:01:09;27.70;34.60
3548;DHT22;1788;49.400;11.092;2023-07-20T12:03:36;27.70;34.30
3548;DHT22;1788;49.400;11.092;2023-07-20T12:08:29;28.00;33.90
3548;DHT22;1788;49.400;11.092;2023-07-20T12:10:55;28.10;33.70
3548;DHT22;1788;49.400;11.092;2023-07-20T12:13:23;28.20;33.30
3548;DHT22;1788;49.400;11.092;2023-07-20T12:15:49;28.20;33.20
3548;DHT22;1788;49.400;11.092;2023-07-20T12:18:17;28.60;33.30
3548;DHT22;1788;49.400;11.092;2023-07-20T12:20:43;28.50;33.20
3548;DHT22;1788;49.400;11.092;2023-07-20T12:23:12;28.80;33.20
3548;DHT22;1788;49.400;11.092;2023-07-20T12:25:39;28.90;31.90
3548;DHT22;1788;49.400;11.092;2023-07-20T12:28:06;28.90;31.80
3548;DHT22;1788;49.400;11.092;2023-07-20T12:30:32;28.80;31.70
3548;DHT22;1788;49.400;11.092;2023-07-20T12:32:59;28.80;31.40
3548;DHT22;1788;49.400;11.092;2023-07-20T12:35:25;28.60;31.20
3548;DHT22;1788;49.400;11.092;2023-07-20T12:37:52;28.40;31.20
3548;DHT22;1788;49.400;11.092;2023-07-20T12:40:19;28.10;31.30
3548;DHT22;1788;49.400;11.092;2023-07-20T12:42:45;28.10;31.40
3548;DHT22;1788;49.400;11.092;2023-07-20T12:45:12;28.10;31.40
3548;DHT22;1788;49.400;11.092;2023-07-20T12:47:39;28.30;31.10
3548;DHT22;1788;49.400;11.092;2023-07-20T12:50:05;28.40;31.00
3548;DHT22;1788;49.400;11.092;2023-07-20T12:52:36;28.70;31.10
3548;DHT22;1788;49.400;11.092;2023-07-20T12:54:59;28.60;31.00
3548;DHT22;1788;49.400;11.092;2023-07-20T12:57:26;28.80;30.90
3548;DHT22;1788;49.400;11.092;2023-07-20T12:59:52;28.80;30.60
3548;DHT22;1788;49.400;11.092;2023-07-20T13:02:19;28.80;30.50
3548;DHT22;1788;49.400;11.092;2023-07-20T13:04:46;29.30;30.10
3548;DHT22;1788;49.400;11.092;2023-07-20T13:07:13;29.20;30.00
3548;DHT22;1788;49.400;11.092;2023-07-20T13:09:40;29.10;30.00
3548;DHT22;1788;49.400;11.092;2023-07-20T13:12:07;29.00;29.90
3548;DHT22;1788;49.400;11.092;2023-07-20T13:14:34;29.40;29.80
3548;DHT22;1788;49.400;11.092;2023-07-20T13:17:01;29.40;29.80
3548;DHT22;1788;49.400;11.092;2023-07-20T13:19:27;29.80;29.50
3548;DHT22;1788;49.400;11.092;2023-07-20T13:21:54;30.10;29.30
3548;DHT22;1788;49.400;11.092;2023-07-20T13:24:21;30.30;29.10
3548;DHT22;1788;49.400;11.092;2023-07-20T13:26:47;30.80;29.00
3548;DHT22;1788;49.400;11.092;2023-07-20T13:29:14;31.20;28.70
3548;DHT22;1788;49.400;11.092;2023-07-20T13:31:40;31.20;28.50
3548;DHT22;1788;49.400;11.092;2023-07-20T13:34:07;30.70;28.60
3548;DHT22;1788;49.400;11.092;2023-07-20T13:36:34;29.90;29.00
3548;DHT22;1788;49.400;11.092;2023-07-20T13:39:01;29.90;29.00
3548;DHT22;1788;49.400;11.092;2023-07-20T13:41:29;29.70;29.30
3548;DHT22;1788;49.400;11.092;2023-07-20T13:43:56;29.70;29.30
3548;DHT22;1788;49.400;11.092;2023-07-20T13:46:22;29.70;29.20
3548;DHT22;1788;49.400;11.092;2023-07-20T13:48:49;29.70;29.10
3548;DHT22;1788;49.400;11.092;2023-07-20T13:51:15;29.80;29.00
3548;DHT22;1788;49.400;11.092;2023-07-20T13:53:45;29.60;28.90
3548;DHT22;1788;49.400;11.092;2023-07-20T13:56:09;29.60;28.90
3548;DHT22;1788;49.400;11.092;2023-07-20T13:58:37;29.70;29.10
3548;DHT22;1788;49.400;11.092;2023-07-20T14:01:03;29.70;29.10
3548;DHT22;1788;49.400;11.092;2023-07-20T14:03:31;29.80;28.80
3548;DHT22;1788;49.400;11.092;2023-07-20T14:05:57;29.70;28.80
3548;DHT22;1788;49.400;11.092;2023-07-20T14:08:24;29.80;28.80
3548;DHT22;1788;49.400;11.092;2023-07-20T14:10:51;29.80;28.80
3548;DHT22;1788;49.400;11.092;2023-07-20T14:13:17;29.90;28.70
3548;DHT22;1788;49.400;11.092;2023-07-20T14:15:45;29.90;28.30
3548;DHT22;1788;49.400;11.092;2023-07-20T14:18:11;29.90;28.30
3548;DHT22;1788;49.400;11.092;2023-07-20T14:20:39;29.80;27.90
3548;DHT22;1788;49.400;11.092;2023-07-20T14:23:05;29.80;27.90
3548;DHT22;1788;49.400;11.092;2023-07-20T14:25:32;29.70;27.70
3548;DHT22;1788;49.400;11.092;2023-07-20T14:27:59;29.70;27.80
3548;DHT22;1788;49.400;11.092;2023-07-20T14:30:25;29.70;27.90
3548;DHT22;1788;49.400;11.092;2023-07-20T14:32:52;29.70;27.90
3548;DHT22;1788;49.400;11.092;2023-07-20T14:35:18;29.60;28.00
3548;DHT22;1788;49.400;11.092;2023-07-20T14:37:45;29.70;28.10
3548;DHT22;1788;49.400;11.092;2023-07-20T14:40:12;29.70;28.00
3548;DHT22;1788;49.400;11.092;2023-07-20T14:42:39;29.40;27.70
3548;DHT22;1788;49.400;11.092;2023-07-20T14:45:06;29.40;27.70
3548;DHT22;1788;49.400;11.092;2023-07-20T14:47:32;29.40;27.80
3548;DHT22;1788;49.400;11.092;2023-07-20T14:49:59;29.40;27.80
3548;DHT22;1788;49.400;11.092;2023-07-20T14:52:25;29.30;27.90
3548;DHT22;1788;49.400;11.092;2023-07-20T14:54:53;29.20;28.00
3548;DHT22;1788;49.400;11.092;2023-07-20T14:57:19;29.20;28.00
3548;DHT22;1788;49.400;11.092;2023-07-20T14:59:46;29.10;28.10
3548;DHT22;1788;49.400;11.092;2023-07-20T15:02:13;28.90;28.10
3548;DHT22;1788;49.400;11.092;2023-07-20T15:07:07;28.90;28.10
3548;DHT22;1788;49.400;11.092;2023-07-20T15:09:33;28.90;28.10
3548;DHT22;1788;49.400;11.092;2023-07-20T15:12:00;28.90;28.10
3548;DHT22;1788;49.400;11.092;2023-07-20T15:14:27;28.80;28.20
3548;DHT22;1788;49.400;11.092;2023-07-20T15:16:54;28.80;28.20
3548;DHT22;1788;49.400;11.092;2023-07-20T15:19:21;28.80;28.60
3548;DHT22;1788;49.400;11.092;2023-07-20T15:21:48;28.80;28.60
3548;DHT22;1788;49.400;11.092;2023-07-20T15:24:14;28.80;28.70
3548;DHT22;1788;49.400;11.092;2023-07-20T15:26:42;28.90;28.80
3548;DHT22;1788;49.400;11.092;2023-07-20T15:29:08;28.90;29.10
3548;DHT22;1788;49.400;11.092;2023-07-20T15:31:35;29.10;28.90
3548;DHT22;1788;49.400;11.092;2023-07-20T15:34:02;29.20;28.80
3548;DHT22;1788;49.400;11.092;2023-07-20T15:36:29;29.10;28.70
3548;DHT22;1788;49.400;11.092;2023-07-20T15:38:56;28.80;28.60
3548;DHT22;1788;49.400;11.092;2023-07-20T15:41:23;28.80;28.60
3548;DHT22;1788;49.400;11.092;2023-07-20T15:43:50;28.50;28.60
3548;DHT22;1788;49.400;11.092;2023-07-20T15:48:44;28.30;29.20
3548;DHT22;1788;49.400;11.092;2023-07-20T15:51:11;28.20;29.30
3548;DHT22;1788;49.400;11.092;2023-07-20T15:53:38;28.30;29.40
3548;DHT22;1788;49.400;11.092;2023-07-20T15:56:04;28.40;29.50
3548;DHT22;1788;49.400;11.092;2023-07-20T15:58:31;28.50;29.60
3548;DHT22;1788;49.400;11.092;2023-07-20T16:00:58;28.60;29.50
3548;DHT22;1788;49.400;11.092;2023-07-20T16:03:25;28.80;29.50
3548;DHT22;1788;49.400;11.092;2023-07-20T16:05:52;28.90;29.30
3548;DHT22;1788;49.400;11.092;2023-07-20T16:08:18;28.90;29.20
3548;DHT22;1788;49.400;11.092;2023-07-20T16:10:45;28.90;29.20
3548;DHT22;1788;49.400;11.092;2023-07-20T16:13:11;29.00;29.10
3548;DHT22;1788;49.400;11.092;2023-07-20T16:15:38;29.10;29.00
3548;DHT22;1788;49.400;11.092;2023-07-20T16:18:04;29.10;28.90
3548;DHT22;1788;49.400;11.092;2023-07-20T16:20:31;29.10;28.80
3548;DHT22;1788;49.400;11.092;2023-07-20T16:22:58;29.00;28.70
3548;DHT22;1788;49.400;11.092;2023-07-20T16:25:24;28.90;28.60
3548;DHT22;1788;49.400;11.092;2023-07-20T16:27:52;28.80;28.60
3548;DHT22;1788;49.400;11.092;2023-07-20T16:30:18;28.70;28.70
3548;DHT22;1788;49.400;11.092;2023-07-20T16:32:45;28.50;28.70
3548;DHT22;1788;49.400;11.092;2023-07-20T16:35:11;28.50;28.80